Andiamo — WDE2131 — position and weather

sailwx.info

Track history (hours):
 
Tides and Currents Weather Stations Pressure Air Temp Water Temp Dewpoint Dewpoint Depression Visibility Wind Speed Wind Dir Waves Ship Positions

Andiamo

Owner: Briggs, Robert O, Newport Beach, CA. More information available from US FCC via Universal Licensing System.

Last reported at 2018-May-12 23:26 UTC. Time now 2018-Jun-25 15:52 UTC.
Position N 20°43' W 105°20'.
Warning: this ship's position is 43 days out of date.

Length 22 m.

Type: Pleasure craft. MMSI: 367320870.

Date/timePositionNaut miles runAvg speedWind from/ knotsBaromVisibWave heightAir tempDewpointWater temp
2018-May-12 23:26N 20°43' W 105°20'3 7.3
2018-May-12 22:59N 20°45' W 105°23'2 5.0
2018-May-12 22:30N 20°43' W 105°21'5 8.6
2018-May-12 21:59N 20°40' W 105°18'4 7.8
2018-May-12 21:27N 20°37' W 105°15'1 1.1
2018-May-12 20:27N 20°38' W 105°15'5 9.1
2018-May-12 19:56N 20°41' W 105°19'4 8.9
2018-May-12 19:29N 20°44' W 105°22'2 3.3
2018-May-12 19:00N 20°45' W 105°23'0 0.0
2018-May-12 18:29N 20°45' W 105°23'0 0.8
2018-May-12 17:59N 20°45' W 105°22'4 8.9
2018-May-12 17:30N 20°41' W 105°19'  
Track history (hours):
 
Tides and Currents Weather Stations Pressure Air Temp Water Temp Dewpoint Dewpoint Depression Visibility Wind Speed Wind Dir Waves Ship Positions

Andiamo

Owner: Briggs, Robert O, Newport Beach, CA. More information available from US FCC via Universal Licensing System.

Last reported at 2018-May-12 23:26 UTC. Time now 2018-Jun-25 15:52 UTC.
Position N 20°43' W 105°20'.
Warning: this ship's position is 43 days out of date.

Length 22 m.

Type: Pleasure craft. MMSI: 367320870.

Date/timePositionNaut miles runAvg speedWind from/ knotsBaromVisibWave heightAir tempDewpointWater temp
2018-May-12 23:26N 20°43' W 105°20'3 7.3
2018-May-12 22:59N 20°45' W 105°23'2 5.0
2018-May-12 22:30N 20°43' W 105°21'5 8.6
2018-May-12 21:59N 20°40' W 105°18'4 7.8
2018-May-12 21:27N 20°37' W 105°15'1 1.1
2018-May-12 20:27N 20°38' W 105°15'5 9.1
2018-May-12 19:56N 20°41' W 105°19'4 8.9
2018-May-12 19:29N 20°44' W 105°22'2 3.3
2018-May-12 19:00N 20°45' W 105°23'0 0.0
2018-May-12 18:29N 20°45' W 105°23'0 0.8
2018-May-12 17:59N 20°45' W 105°22'4 8.9
2018-May-12 17:30N 20°41' W 105°19'  

Dump ship's entire track history